createdAt,value
2017-06-05T00:00:38.943Z,14.70
2017-06-05T00:03:05.737Z,14.80
2017-06-05T00:05:32.093Z,14.70
2017-06-05T00:07:59.313Z,14.40
2017-06-05T00:10:25.814Z,14.40
2017-06-05T00:12:52.189Z,14.30
2017-06-05T00:15:18.573Z,14.20
2017-06-05T00:17:44.934Z,14.10
2017-06-05T00:20:11.302Z,14.00
2017-06-05T00:22:37.673Z,13.80
2017-06-05T00:25:04.779Z,13.60
2017-06-05T00:27:31.164Z,13.60
2017-06-05T00:29:58.237Z,13.50
2017-06-05T00:32:24.599Z,13.50
2017-06-05T00:34:50.977Z,13.40
2017-06-05T00:37:17.341Z,13.50
2017-06-05T00:39:44.421Z,13.30
2017-06-05T00:42:10.753Z,13.20
2017-06-05T00:44:37.092Z,13.30
2017-06-05T00:47:03.439Z,13.20
2017-06-05T00:49:29.780Z,13.20
2017-06-05T00:51:56.137Z,13.10
2017-06-05T00:54:23.232Z,13.00
2017-06-05T00:56:50.380Z,13.00
2017-06-05T00:59:16.784Z,13.00
2017-06-05T01:01:43.177Z,12.90
2017-06-05T01:04:09.509Z,12.90
2017-06-05T01:06:35.842Z,12.80
2017-06-05T01:09:02.272Z,12.80
2017-06-05T01:11:28.653Z,12.70
2017-06-05T01:13:55.024Z,12.70
2017-06-05T01:16:21.365Z,12.70
2017-06-05T01:18:47.787Z,12.70
2017-06-05T01:21:14.241Z,12.60
2017-06-05T01:23:40.610Z,12.70
2017-06-05T01:26:07.004Z,12.60
2017-06-05T01:28:34.099Z,12.60
2017-06-05T01:31:01.199Z,12.70
2017-06-05T01:33:27.959Z,12.60
2017-06-05T01:35:54.328Z,12.70
2017-06-05T01:38:20.681Z,12.50
2017-06-05T01:40:47.055Z,12.40
2017-06-05T01:43:13.462Z,12.50
2017-06-05T01:45:39.860Z,12.40
2017-06-05T01:48:06.216Z,12.30
2017-06-05T01:50:32.585Z,12.20
2017-06-05T01:53:00.080Z,12.20
2017-06-05T01:55:26.456Z,12.20
2017-06-05T01:57:52.811Z,12.20
2017-06-05T02:00:19.224Z,12.20
2017-06-05T02:02:45.653Z,12.10
2017-06-05T02:05:11.993Z,12.20
2017-06-05T02:07:38.333Z,12.10
2017-06-05T02:10:04.688Z,12.00
2017-06-05T02:12:31.778Z,12.10
2017-06-05T02:14:58.106Z,12.10
2017-06-05T02:17:24.438Z,12.00
2017-06-05T02:19:50.772Z,12.00
2017-06-05T02:22:17.189Z,12.00
2017-06-05T02:24:43.622Z,12.10
2017-06-05T02:27:09.965Z,12.10
2017-06-05T02:29:36.593Z,12.10
2017-06-05T02:32:03.168Z,12.00
2017-06-05T02:34:29.760Z,11.90
2017-06-05T02:36:56.344Z,12.00
2017-06-05T02:39:22.918Z,11.90
2017-06-05T02:41:49.417Z,11.80
2017-06-05T02:44:16.055Z,11.80
2017-06-05T02:46:42.545Z,11.80
2017-06-05T02:49:09.107Z,12.00
2017-06-05T02:51:35.552Z,12.00
2017-06-05T02:54:02.861Z,12.00
2017-06-05T02:56:29.373Z,12.00
2017-06-05T02:58:55.937Z,12.00
2017-06-05T03:01:22.533Z,12.00
2017-06-05T03:03:49.105Z,11.90
2017-06-05T03:06:16.423Z,12.00
2017-06-05T03:08:43.029Z,12.00
2017-06-05T03:11:09.621Z,11.90
2017-06-05T03:13:36.220Z,11.80
2017-06-05T03:16:03.207Z,11.80
2017-06-05T03:18:29.828Z,11.80
2017-06-05T03:21:11.376Z,11.80
2017-06-05T03:23:37.722Z,11.70
2017-06-05T03:26:04.061Z,11.60
2017-06-05T03:28:30.441Z,11.70
2017-06-05T03:30:56.803Z,11.70
2017-06-05T03:33:23.282Z,11.80
2017-06-05T03:35:50.474Z,11.80
2017-06-05T03:38:16.884Z,11.80
2017-06-05T03:40:43.283Z,11.80
2017-06-05T03:43:09.649Z,11.90
2017-06-05T03:45:36.299Z,11.90
2017-06-05T03:48:03.324Z,11.80
2017-06-05T03:50:29.933Z,11.90
2017-06-05T03:52:57.288Z,11.80
2017-06-05T03:55:23.885Z,11.80
2017-06-05T03:57:50.496Z,11.80
2017-06-05T04:00:17.100Z,11.90
2017-06-05T04:02:43.737Z,11.90
2017-06-05T04:05:10.300Z,11.80
2017-06-05T04:07:36.917Z,11.80
2017-06-05T04:10:04.718Z,11.80
2017-06-05T04:12:31.220Z,11.70
2017-06-05T04:14:57.809Z,11.80
2017-06-05T04:17:24.700Z,11.70
2017-06-05T04:19:51.347Z,11.60
2017-06-05T04:22:17.933Z,11.70
2017-06-05T04:24:44.445Z,11.70
2017-06-05T04:27:11.013Z,11.80
2017-06-05T04:29:38.324Z,11.90
2017-06-05T04:32:04.931Z,11.90
2017-06-05T04:34:31.508Z,12.00
2017-06-05T04:36:58.246Z,11.90
2017-06-05T04:39:24.831Z,12.10
2017-06-05T04:41:52.471Z,12.20
2017-06-05T04:44:19.068Z,12.20
2017-06-05T04:46:45.636Z,12.30
2017-06-05T04:49:12.214Z,12.40
2017-06-05T04:51:38.712Z,12.40
2017-06-05T04:54:05.336Z,12.50
2017-06-05T04:56:31.983Z,12.60
2017-06-05T04:58:58.467Z,12.60
2017-06-05T05:01:25.025Z,12.70
2017-06-05T05:03:52.361Z,12.70
2017-06-05T05:06:25.910Z,12.70
2017-06-05T05:08:53.018Z,12.80
2017-06-05T05:11:20.099Z,12.90
2017-06-05T05:13:46.457Z,12.90
2017-06-05T05:16:12.807Z,13.00
2017-06-05T05:18:39.171Z,13.00
2017-06-05T05:21:05.516Z,13.10
2017-06-05T05:23:31.895Z,13.10
2017-06-05T05:25:58.236Z,13.20
2017-06-05T05:28:24.597Z,13.30
2017-06-05T05:30:51.760Z,13.40
2017-06-05T05:33:18.398Z,13.50
2017-06-05T05:35:44.979Z,13.60
2017-06-05T05:38:11.587Z,13.60
2017-06-05T05:40:38.163Z,13.70
2017-06-05T05:43:04.813Z,13.80
2017-06-05T05:45:31.417Z,13.90
2017-06-05T05:47:58.004Z,13.90
2017-06-05T05:50:24.632Z,14.00
2017-06-05T05:52:51.249Z,14.10
2017-06-05T05:55:18.521Z,14.20
2017-06-05T05:57:45.103Z,13.90
2017-06-05T06:00:11.750Z,14.20
2017-06-05T06:02:38.357Z,14.40
2017-06-05T06:05:05.008Z,14.50
2017-06-05T06:07:31.605Z,14.50
2017-06-05T06:10:00.237Z,14.50
2017-06-05T06:12:26.825Z,14.60
2017-06-05T06:14:53.436Z,14.60
2017-06-05T06:17:20.780Z,14.60
2017-06-05T06:19:47.781Z,14.60
2017-06-05T06:22:14.369Z,14.70
2017-06-05T06:24:40.961Z,14.80
2017-06-05T06:27:08.335Z,14.90
2017-06-05T06:29:34.962Z,14.80
2017-06-05T06:32:01.368Z,15.00
2017-06-05T06:34:28.020Z,15.10
2017-06-05T06:36:55.356Z,15.10
2017-06-05T06:39:21.850Z,15.10
2017-06-05T06:41:48.430Z,15.20
2017-06-05T06:44:15.015Z,15.30
2017-06-05T06:46:41.488Z,15.40
2017-06-05T06:49:08.493Z,15.40
2017-06-05T06:51:35.136Z,15.60
2017-06-05T06:54:02.504Z,15.80
2017-06-05T06:56:29.128Z,15.70
2017-06-05T06:58:55.719Z,15.90
2017-06-05T07:01:23.462Z,16.10
2017-06-05T07:03:50.764Z,16.20
2017-06-05T07:06:17.494Z,16.10
2017-06-05T07:08:44.108Z,16.30
2017-06-05T07:11:10.604Z,16.20
2017-06-05T07:13:37.941Z,16.40
2017-06-05T07:16:06.121Z,16.40
2017-06-05T07:18:39.589Z,15.90
2017-06-05T07:21:06.221Z,16.50
2017-06-05T07:23:32.721Z,16.80
2017-06-05T07:26:00.122Z,17.10
2017-06-05T07:28:26.707Z,17.10
2017-06-05T07:30:53.160Z,17.30
2017-06-05T07:33:19.782Z,17.30
2017-06-05T07:35:46.209Z,17.20
2017-06-05T07:38:12.816Z,17.30
2017-06-05T07:40:39.420Z,17.40
2017-06-05T07:43:05.944Z,17.50
2017-06-05T07:45:32.492Z,17.70
2017-06-05T07:47:59.072Z,17.70
2017-06-05T07:50:25.671Z,17.80
2017-06-05T07:52:52.319Z,17.90
2017-06-05T07:55:18.820Z,17.90
2017-06-05T07:57:45.420Z,18.20
2017-06-05T08:00:12.079Z,18.50
2017-06-05T08:02:39.343Z,18.60
2017-06-05T08:05:06.686Z,18.70
2017-06-05T08:07:33.224Z,18.70
2017-06-05T08:10:00.552Z,19.40
2017-06-05T08:12:27.142Z,19.30
2017-06-05T08:14:53.725Z,20.00
2017-06-05T08:17:20.282Z,20.70
2017-06-05T08:19:46.720Z,21.70
2017-06-05T08:22:13.385Z,22.40
2017-06-05T08:24:39.953Z,22.60
2017-06-05T08:27:06.561Z,23.10
2017-06-05T08:29:35.953Z,23.90
2017-06-05T08:32:06.247Z,23.90
2017-06-05T08:34:39.308Z,25.00
2017-06-05T08:37:06.461Z,25.30
2017-06-05T08:39:34.210Z,25.50
2017-06-05T08:42:01.989Z,25.60
2017-06-05T08:44:29.166Z,25.50
2017-06-05T08:46:58.613Z,25.60
2017-06-05T08:49:25.682Z,25.50
2017-06-05T08:51:52.256Z,25.50
2017-06-05T08:54:21.276Z,25.70
2017-06-05T08:56:49.248Z,23.70
2017-06-05T08:59:18.486Z,23.50
2017-06-05T09:01:45.661Z,22.20
2017-06-05T09:04:12.000Z,22.10
2017-06-05T09:06:38.446Z,21.60
2017-06-05T09:09:04.773Z,21.00
2017-06-05T09:11:31.148Z,20.80
2017-06-05T09:13:57.517Z,21.10
2017-06-05T09:16:23.917Z,21.30
2017-06-05T09:18:50.257Z,21.30
2017-06-05T09:21:16.982Z,20.70
2017-06-05T09:23:50.504Z,21.10
2017-06-05T09:26:18.812Z,21.10
2017-06-05T09:28:45.389Z,21.20
2017-06-05T09:31:12.089Z,21.00
2017-06-05T09:33:38.665Z,20.60
2017-06-05T09:36:06.495Z,20.40
2017-06-05T09:38:33.901Z,20.30
2017-06-05T09:41:00.780Z,20.50
2017-06-05T09:43:27.850Z,20.20
2017-06-05T09:45:54.734Z,20.30
2017-06-05T09:48:21.695Z,20.40
2017-06-05T09:50:48.404Z,20.50
2017-06-05T09:53:14.990Z,20.40
2017-06-05T09:55:42.230Z,20.60
2017-06-05T09:58:14.639Z,20.70
2017-06-05T10:00:41.208Z,20.60
2017-06-05T10:03:07.857Z,20.60
2017-06-05T10:05:34.424Z,20.70
2017-06-05T10:08:01.009Z,20.60
2017-06-05T10:10:27.592Z,20.70
2017-06-05T10:12:58.056Z,20.90
2017-06-05T10:15:24.602Z,21.00
2017-06-05T10:17:51.198Z,21.10
2017-06-05T10:20:17.805Z,21.00
2017-06-05T10:22:44.393Z,20.80
2017-06-05T10:25:11.045Z,21.00
2017-06-05T10:27:41.384Z,21.10
2017-06-05T10:30:07.977Z,21.30
2017-06-05T10:32:35.509Z,21.00
2017-06-05T10:35:02.144Z,21.20
2017-06-05T10:37:28.696Z,21.30
2017-06-05T10:39:55.300Z,21.60
2017-06-05T10:44:53.341Z,22.00
2017-06-05T10:47:19.912Z,22.00
2017-06-05T10:49:46.377Z,21.80
2017-06-05T10:52:13.013Z,21.80
2017-06-05T10:54:39.616Z,21.90
2017-06-05T10:59:38.772Z,21.50
2017-06-05T11:02:05.417Z,21.80
2017-06-05T11:04:32.728Z,22.10
2017-06-05T11:06:59.287Z,22.00
2017-06-05T11:09:25.873Z,22.10
2017-06-05T11:11:56.187Z,22.20
2017-06-05T11:14:23.510Z,22.40
2017-06-05T11:16:50.000Z,22.40
2017-06-05T11:19:16.589Z,22.50
2017-06-05T11:21:43.017Z,22.70
2017-06-05T11:24:09.660Z,22.60
2017-06-05T11:26:40.141Z,22.40
2017-06-05T11:29:06.708Z,22.40
2017-06-05T11:31:33.260Z,22.10
2017-06-05T11:33:59.733Z,22.00
2017-06-05T11:36:26.312Z,22.20
2017-06-05T11:38:52.876Z,22.10
2017-06-05T11:41:24.485Z,22.10
2017-06-05T11:43:50.841Z,22.10
2017-06-05T11:46:17.256Z,21.80
2017-06-05T11:48:43.808Z,22.10
2017-06-05T11:51:10.413Z,22.30
2017-06-05T11:53:37.008Z,22.40
2017-06-05T11:58:35.149Z,22.60
2017-06-05T12:01:02.233Z,22.50
2017-06-05T12:03:28.561Z,22.30
2017-06-05T12:05:55.152Z,22.40
2017-06-05T12:08:22.337Z,22.90
2017-06-05T12:10:48.997Z,22.80
2017-06-05T12:13:15.549Z,23.30
2017-06-05T12:15:42.136Z,23.10
2017-06-05T12:18:08.741Z,23.00
2017-06-05T12:20:35.236Z,22.70
2017-06-05T12:23:02.598Z,22.90
2017-06-05T12:25:29.249Z,22.90
2017-06-05T12:27:55.794Z,22.50
2017-06-05T12:30:22.284Z,22.10
2017-06-05T12:32:48.974Z,22.30
2017-06-05T12:35:15.994Z,22.60
2017-06-05T12:37:42.596Z,22.60
2017-06-05T12:40:09.136Z,22.90
2017-06-05T12:42:35.732Z,23.00
2017-06-05T12:47:34.154Z,22.60
2017-06-05T12:50:00.820Z,22.80
2017-06-05T12:52:27.132Z,22.70
2017-06-05T12:54:54.410Z,22.70
2017-06-05T12:57:20.969Z,22.70
2017-06-05T12:59:47.576Z,22.80
2017-06-05T13:02:14.204Z,23.00
2017-06-05T13:04:43.716Z,22.90
2017-06-05T13:07:10.247Z,23.10
2017-06-05T13:09:36.830Z,23.20
2017-06-05T13:12:03.424Z,23.20
2017-06-05T13:14:30.159Z,22.90
2017-06-05T13:16:56.741Z,23.10
2017-06-05T13:19:23.362Z,22.70
2017-06-05T13:21:49.976Z,22.90
2017-06-05T13:24:16.541Z,23.00
2017-06-05T13:26:43.873Z,23.20
2017-06-05T13:29:10.533Z,23.20
2017-06-05T13:31:37.098Z,23.20
2017-06-05T13:34:03.780Z,23.20
2017-06-05T13:36:30.365Z,23.10
2017-06-05T13:38:56.980Z,23.00
2017-06-05T13:41:23.640Z,23.00
2017-06-05T13:43:50.256Z,23.00
2017-06-05T13:46:16.827Z,22.90
2017-06-05T13:48:43.537Z,22.90
2017-06-05T13:51:09.984Z,22.80
2017-06-05T13:53:36.570Z,23.00
2017-06-05T13:56:03.064Z,23.20
2017-06-05T13:58:29.626Z,23.30
2017-06-05T14:00:56.173Z,23.40
2017-06-05T14:03:22.863Z,23.40
2017-06-05T14:05:49.592Z,23.30
2017-06-05T14:08:16.233Z,23.40
2017-06-05T14:10:42.865Z,23.10
2017-06-05T14:13:09.479Z,23.10
2017-06-05T14:15:35.956Z,23.10
2017-06-05T14:18:02.488Z,23.10
2017-06-05T14:20:29.076Z,22.90
2017-06-05T14:22:55.640Z,23.20
2017-06-05T14:25:22.217Z,23.30
2017-06-05T14:27:48.813Z,23.20
2017-06-05T14:30:15.361Z,23.30
2017-06-05T14:32:41.913Z,23.40
2017-06-05T14:35:09.216Z,23.40
2017-06-05T14:37:36.586Z,23.20
2017-06-05T14:40:03.928Z,23.10
2017-06-05T14:42:30.378Z,23.10
2017-06-05T14:44:56.980Z,23.20
2017-06-05T14:47:29.706Z,23.00
2017-06-05T14:49:56.276Z,23.00
2017-06-05T14:52:22.872Z,22.90
2017-06-05T14:54:50.169Z,22.60
2017-06-05T14:57:16.706Z,22.60
2017-06-05T14:59:43.396Z,22.50
2017-06-05T15:02:12.332Z,22.50
2017-06-05T15:04:38.956Z,22.60
2017-06-05T15:07:05.425Z,22.50
2017-06-05T15:09:32.102Z,22.30
2017-06-05T15:11:58.580Z,22.40
2017-06-05T15:14:25.184Z,22.60
2017-06-05T15:16:51.872Z,22.60
2017-06-05T15:19:18.459Z,22.80
2017-06-05T15:21:45.225Z,22.70
2017-06-05T15:24:12.564Z,22.70
2017-06-05T15:26:39.144Z,22.60
2017-06-05T15:29:06.348Z,22.50
2017-06-05T15:31:33.273Z,22.50
2017-06-05T15:33:59.826Z,22.60
2017-06-05T15:36:26.401Z,22.40
2017-06-05T15:38:52.833Z,22.40
2017-06-05T15:41:20.197Z,22.60
2017-06-05T15:43:47.476Z,22.80
2017-06-05T15:46:14.089Z,22.80
2017-06-05T15:48:40.649Z,23.10
2017-06-05T15:51:07.307Z,23.30
2017-06-05T15:53:33.900Z,23.30
2017-06-05T15:56:00.475Z,23.30
2017-06-05T15:58:27.065Z,23.40
2017-06-05T16:00:53.548Z,23.40
2017-06-05T16:03:20.148Z,23.40
2017-06-05T16:05:46.692Z,23.30
2017-06-05T16:08:13.248Z,23.20
2017-06-05T16:10:39.853Z,23.10
2017-06-05T16:13:06.428Z,23.20
2017-06-05T16:15:33.012Z,23.10
2017-06-05T16:17:59.436Z,23.20
2017-06-05T16:20:26.080Z,23.00
2017-06-05T16:22:52.652Z,22.70
2017-06-05T16:25:19.368Z,22.80
2017-06-05T16:27:46.636Z,22.70
2017-06-05T16:30:13.233Z,22.70
2017-06-05T16:32:39.740Z,22.90
2017-06-05T16:35:06.293Z,22.80
2017-06-05T16:37:32.872Z,22.90
2017-06-05T16:39:59.448Z,22.90
2017-06-05T16:42:26.029Z,22.80
2017-06-05T16:44:52.584Z,22.80
2017-06-05T16:47:19.184Z,22.90
2017-06-05T16:49:45.774Z,22.90
2017-06-05T16:52:12.213Z,22.80
2017-06-05T16:54:38.816Z,22.20
2017-06-05T16:57:05.384Z,22.40
2017-06-05T16:59:36.956Z,22.60
2017-06-05T17:02:08.352Z,22.40
2017-06-05T17:04:36.797Z,22.10
2017-06-05T17:07:03.416Z,22.20
2017-06-05T17:09:30.157Z,22.40
2017-06-05T17:11:56.757Z,22.30
2017-06-05T17:14:23.270Z,22.10
2017-06-05T17:16:50.745Z,22.00
2017-06-05T17:19:18.244Z,21.80
2017-06-05T17:21:44.805Z,21.80
2017-06-05T17:24:11.471Z,21.80
2017-06-05T17:26:37.956Z,21.80
2017-06-05T17:29:04.627Z,21.70
2017-06-05T17:31:31.218Z,21.60
2017-06-05T17:33:57.873Z,21.60
2017-06-05T17:36:24.713Z,21.50
2017-06-05T17:38:51.506Z,21.40
2017-06-05T17:41:18.004Z,21.40
2017-06-05T17:43:44.568Z,21.30
2017-06-05T17:46:11.178Z,21.20
2017-06-05T17:48:38.484Z,21.10
2017-06-05T17:51:05.011Z,21.00
2017-06-05T17:53:31.580Z,21.00
2017-06-05T17:55:58.286Z,20.90
2017-06-05T17:58:24.864Z,20.90
2017-06-05T18:00:52.053Z,21.00
2017-06-05T18:03:18.669Z,21.00
2017-06-05T18:05:45.255Z,21.00
2017-06-05T18:08:14.262Z,21.00
2017-06-05T18:10:40.996Z,21.00
2017-06-05T18:13:07.727Z,20.90
2017-06-05T18:15:34.320Z,20.90
2017-06-05T18:18:01.861Z,20.80
2017-06-05T18:20:28.297Z,20.80
2017-06-05T18:22:54.871Z,20.80
2017-06-05T18:25:21.499Z,20.80
2017-06-05T18:27:48.000Z,20.70
2017-06-05T18:30:14.602Z,20.60
2017-06-05T18:32:41.184Z,20.60
2017-06-05T18:35:07.854Z,20.40
2017-06-05T18:37:34.472Z,20.20
2017-06-05T18:40:01.090Z,20.20
2017-06-05T18:42:27.638Z,20.10
2017-06-05T18:44:54.216Z,19.90
2017-06-05T18:47:20.808Z,19.70
2017-06-05T18:49:48.456Z,19.40
2017-06-05T18:52:15.861Z,19.40
2017-06-05T18:54:42.429Z,19.40
2017-06-05T18:57:09.013Z,19.30
2017-06-05T18:59:35.676Z,19.30
2017-06-05T19:02:02.276Z,19.30
2017-06-05T19:04:28.708Z,19.20
2017-06-05T19:06:56.031Z,19.00
2017-06-05T19:09:22.495Z,19.00
2017-06-05T19:11:49.111Z,18.80
2017-06-05T19:14:15.728Z,18.70
2017-06-05T19:16:42.352Z,18.80
2017-06-05T19:19:08.916Z,18.70
2017-06-05T19:21:35.256Z,18.60
2017-06-05T19:24:01.648Z,18.60
2017-06-05T19:26:27.996Z,18.60
2017-06-05T19:28:55.164Z,18.60
2017-06-05T19:31:21.545Z,18.50
2017-06-05T19:33:47.900Z,18.60
2017-06-05T19:36:14.391Z,18.60
2017-06-05T19:38:40.836Z,18.60
2017-06-05T19:41:07.249Z,18.50
2017-06-05T19:43:34.661Z,18.20
2017-06-05T19:46:01.064Z,18.20
2017-06-05T19:48:27.440Z,18.10
2017-06-05T19:50:53.818Z,18.00
2017-06-05T19:53:20.193Z,18.00
2017-06-05T19:55:46.992Z,18.10
2017-06-05T19:58:13.547Z,17.80
2017-06-05T20:00:39.910Z,17.70
2017-06-05T20:03:06.232Z,17.70
2017-06-05T20:05:32.569Z,17.60
2017-06-05T20:07:58.892Z,17.40
2017-06-05T20:10:25.236Z,17.30
2017-06-05T20:12:51.662Z,17.20
2017-06-05T20:15:17.985Z,17.20
2017-06-05T20:17:45.072Z,17.20
2017-06-05T20:20:12.172Z,17.10
2017-06-05T20:22:38.499Z,17.10
2017-06-05T20:25:05.588Z,17.20
2017-06-05T20:27:31.917Z,17.10
2017-06-05T20:29:58.265Z,17.20
2017-06-05T20:32:24.672Z,17.10
2017-06-05T20:34:51.025Z,17.20
2017-06-05T20:37:17.404Z,17.20
2017-06-05T20:39:43.804Z,17.20
2017-06-05T20:42:10.165Z,17.20
2017-06-05T20:44:36.522Z,17.10
2017-06-05T20:47:02.902Z,17.10
2017-06-05T20:49:30.065Z,17.10
2017-06-05T20:51:56.382Z,17.10
2017-06-05T20:54:24.267Z,16.90
2017-06-05T20:56:52.977Z,16.70
2017-06-05T20:59:19.415Z,16.70
2017-06-05T21:01:45.765Z,16.70
2017-06-05T21:04:12.123Z,16.70
2017-06-05T21:06:38.481Z,16.70
2017-06-05T21:09:04.836Z,16.50
2017-06-05T21:11:31.177Z,16.50
2017-06-05T21:13:57.544Z,16.50
2017-06-05T21:16:23.904Z,16.40
2017-06-05T21:18:51.104Z,16.40
2017-06-05T21:21:17.654Z,16.40
2017-06-05T21:23:44.299Z,16.30
2017-06-05T21:26:23.114Z,16.20
2017-06-05T21:28:51.856Z,16.20
2017-06-05T21:31:18.255Z,16.20
2017-06-05T21:33:46.274Z,16.10
2017-06-05T21:36:12.697Z,16.10
2017-06-05T21:38:39.053Z,16.00
2017-06-05T21:41:05.523Z,16.00
2017-06-05T21:43:31.860Z,15.90
2017-06-05T21:45:58.256Z,15.90
2017-06-05T21:48:24.572Z,15.90
2017-06-05T21:50:51.032Z,15.80
2017-06-05T21:53:17.810Z,15.80
2017-06-05T21:55:44.129Z,15.80
2017-06-05T21:58:10.478Z,15.90
2017-06-05T22:00:36.881Z,15.80
2017-06-05T22:03:03.472Z,15.80
2017-06-05T22:05:29.950Z,15.70
2017-06-05T22:07:56.517Z,15.80
2017-06-05T22:10:23.202Z,15.70
2017-06-05T22:12:49.821Z,15.80
2017-06-05T22:15:17.153Z,15.70
2017-06-05T22:17:43.781Z,15.70
2017-06-05T22:20:11.702Z,15.70
2017-06-05T22:22:39.433Z,15.70
2017-06-05T22:25:06.001Z,15.70
2017-06-05T22:27:32.622Z,15.70
2017-06-05T22:29:59.188Z,15.70
2017-06-05T22:32:25.832Z,15.60
2017-06-05T22:34:52.491Z,15.70
2017-06-05T22:37:19.444Z,15.70
2017-06-05T22:39:46.853Z,15.70
2017-06-05T22:42:13.449Z,15.70
2017-06-05T22:44:39.913Z,15.80
2017-06-05T22:47:06.530Z,15.80
2017-06-05T22:49:33.314Z,15.70
2017-06-05T22:51:59.893Z,15.80
2017-06-05T22:54:26.484Z,15.80
2017-06-05T22:56:53.151Z,15.80
2017-06-05T22:59:20.140Z,15.70
2017-06-05T23:01:46.705Z,15.70
2017-06-05T23:04:13.268Z,15.70
2017-06-05T23:06:41.044Z,15.70
2017-06-05T23:09:10.685Z,15.70
2017-06-05T23:11:38.036Z,15.70
2017-06-05T23:14:05.407Z,15.80
2017-06-05T23:16:31.985Z,15.80
2017-06-05T23:18:58.563Z,15.80
2017-06-05T23:21:25.064Z,15.90
2017-06-05T23:23:52.386Z,15.90
2017-06-05T23:26:19.038Z,15.90
2017-06-05T23:28:45.632Z,15.90
2017-06-05T23:31:12.211Z,15.90
2017-06-05T23:33:38.792Z,15.90
2017-06-05T23:36:05.500Z,15.90
2017-06-05T23:38:32.848Z,16.00
2017-06-05T23:40:59.446Z,16.00
2017-06-05T23:43:26.028Z,16.00
2017-06-05T23:45:52.518Z,16.00
2017-06-05T23:48:19.884Z,15.90
2017-06-05T23:50:46.337Z,15.90
2017-06-05T23:53:12.950Z,15.90
2017-06-05T23:55:39.565Z,15.90
2017-06-05T23:58:06.012Z,15.90
